Time;durP1;ratioP1;P1;durP2;ratioP2;P2;SDS_P1;SDS_P2;PMS_P1;PMS_P2;Temp;Humidity;BMP_temperature;BMP_pressure;BME280_temperature;BME280_humidity;BME280_pressure;Samples;Min_cycle;Max_cycle;Signal;HPM_P1;HPM_P2
2024/01/12 00:01:29;;;;;;;23.42;9.00;;;-2.00;99.90;;;;;;2602865;54;20022;31
2024/01/12 00:04:15;;;;;;;23.08;11.02;;;-2.00;99.90;;;;;;2602355;54;20914;31
2024/01/12 00:06:59;;;;;;;20.77;9.27;;;-2.00;99.90;;;;;;2700531;39;21597;31
2024/01/12 00:09:43;;;;;;;22.35;9.45;;;-2.00;99.90;;;;;;2621559;46;20026;31
2024/01/12 00:12:41;;;;;;;18.75;8.57;;;-2.00;99.90;;;;;;2602805;54;20042;31
2024/01/12 00:15:44;;;;;;;18.10;8.43;;;-2.00;99.90;;;;;;2602838;54;20861;31
2024/01/12 00:19:03;;;;;;;20.35;9.35;;;-2.00;99.90;;;;;;2602818;54;20355;31
2024/01/12 00:21:59;;;;;;;21.13;8.53;;;-2.00;99.90;;;;;;2621097;46;20036;31
2024/01/12 00:24:48;;;;;;;16.23;7.53;;;-1.90;99.90;;;;;;2602555;54;20866;31
2024/01/12 00:30:36;;;;;;;23.33;9.50;;;-2.00;99.90;;;;;;2602724;54;20793;31
2024/01/12 00:33:17;;;;;;;24.27;9.68;;;-2.00;99.90;;;;;;2602569;54;20036;31
2024/01/12 00:36:02;;;;;;;22.73;9.95;;;-1.90;99.90;;;;;;2621128;46;20031;31
2024/01/12 00:38:44;;;;;;;24.30;9.85;;;-1.90;99.90;;;;;;2621063;46;20077;31
2024/01/12 00:41:32;;;;;;;22.20;9.55;;;-1.90;99.90;;;;;;2602676;54;20923;31
2024/01/12 00:44:12;;;;;;;22.55;9.90;;;-1.90;99.90;;;;;;2602557;54;20113;31
2024/01/12 00:46:50;;;;;;;25.00;10.35;;;-2.00;99.90;;;;;;2602754;54;20556;31
2024/01/12 00:49:29;;;;;;;24.67;10.23;;;-1.90;99.90;;;;;;2602538;54;20038;31
2024/01/12 00:52:17;;;;;;;20.35;9.50;;;-1.90;99.90;;;;;;2701117;39;22331;31
2024/01/12 00:54:59;;;;;;;22.95;10.07;;;-1.80;99.90;;;;;;2602582;54;20830;31
2024/01/12 00:57:40;;;;;;;20.48;9.57;;;-1.90;99.90;;;;;;2602502;54;20842;31
2024/01/12 01:00:17;;;;;;;20.17;8.77;;;-1.80;99.90;;;;;;2602409;54;20097;31
2024/01/12 01:02:54;;;;;;;24.58;10.45;;;-1.80;99.90;;;;;;2602739;54;20030;31
2024/01/12 01:05:34;;;;;;;20.00;9.50;;;-1.80;99.90;;;;;;2602561;54;20085;31
2024/01/12 01:08:12;;;;;;;19.95;9.60;;;-1.70;99.90;;;;;;2602700;54;21041;31
2024/01/12 01:10:51;;;;;;;24.90;9.70;;;-1.70;99.90;;;;;;2621664;46;22430;31
2024/01/12 01:16:31;;;;;;;22.15;9.70;;;-1.70;99.90;;;;;;2603528;54;22404;31
2024/01/12 01:19:13;;;;;;;24.20;10.10;;;-1.70;99.90;;;;;;2603336;54;20052;31
2024/01/12 01:24:35;;;;;;;22.73;9.98;;;-1.70;99.90;;;;;;2603331;54;20026;31
2024/01/12 01:27:13;;;;;;;20.58;9.25;;;-1.70;99.90;;;;;;2603380;54;20030;31
2024/01/12 01:29:51;;;;;;;25.43;9.77;;;-1.70;99.90;;;;;;2603185;54;20044;31
2024/01/12 01:32:32;;;;;;;19.77;9.53;;;-1.70;99.90;;;;;;2603283;54;20871;31
2024/01/12 01:35:13;;;;;;;24.63;10.13;;;-1.70;99.90;;;;;;2621892;46;21338;31
2024/01/12 01:37:56;;;;;;;22.60;8.95;;;-1.70;99.90;;;;;;2603364;54;20043;31
2024/01/12 01:40:33;;;;;;;22.13;9.37;;;-1.70;99.90;;;;;;2603211;54;20867;31
2024/01/12 01:43:36;;;;;;;21.45;9.85;;;-1.70;99.90;;;;;;2603277;54;20332;31
2024/01/12 01:46:26;;;;;;;25.50;10.03;;;-1.70;99.90;;;;;;2603304;54;20866;31
2024/01/12 01:49:27;;;;;;;24.70;9.52;;;-1.60;99.90;;;;;;2603271;54;21077;31
2024/01/12 01:54:50;;;;;;;23.07;9.93;;;-1.70;99.90;;;;;;2603135;54;20889;31
2024/01/12 01:57:32;;;;;;;19.10;9.30;;;-1.60;99.90;;;;;;2621717;46;20256;31
2024/01/12 02:00:14;;;;;;;25.05;9.80;;;-1.60;99.90;;;;;;2603127;54;20819;31
2024/01/12 02:03:11;;;;;;;24.90;9.65;;;-1.60;99.90;;;;;;2603297;54;20045;31
2024/01/12 02:05:56;;;;;;;22.23;10.10;;;-1.60;99.90;;;;;;2603261;54;20031;31
2024/01/12 02:08:35;;;;;;;29.03;10.00;;;-1.60;99.90;;;;;;2621394;46;21164;31
2024/01/12 02:11:12;;;;;;;24.08;10.43;;;-1.60;99.90;;;;;;2603126;54;20053;31
2024/01/12 02:13:56;;;;;;;20.73;9.57;;;-1.60;99.90;;;;;;2603167;54;20949;31
2024/01/12 02:16:41;;;;;;;26.88;11.20;;;-1.60;99.90;;;;;;2603131;54;20262;31
2024/01/12 02:19:17;;;;;;;23.20;9.18;;;-1.50;99.90;;;;;;2603207;54;20037;31
2024/01/12 02:21:59;;;;;;;24.13;9.45;;;-1.50;99.90;;;;;;2602829;54;20938;31
2024/01/12 02:24:39;;;;;;;21.45;10.18;;;-1.50;99.90;;;;;;2603096;54;20076;31
2024/01/12 02:27:16;;;;;;;26.33;10.10;;;-1.50;99.90;;;;;;2603242;54;20105;31
2024/01/12 02:29:52;;;;;;;24.92;10.77;;;-1.50;99.90;;;;;;2603104;54;20042;31
2024/01/12 02:32:31;;;;;;;20.33;9.27;;;-1.50;99.90;;;;;;2603324;54;20853;31
2024/01/12 02:35:10;;;;;;;19.90;9.70;;;-1.50;99.90;;;;;;2603099;54;20242;31
2024/01/12 02:37:50;;;;;;;25.15;10.27;;;-1.50;99.90;;;;;;2621748;46;20844;31
2024/01/12 02:40:30;;;;;;;22.70;9.65;;;-1.50;99.90;;;;;;2603102;54;20089;31
2024/01/12 02:43:13;;;;;;;24.50;10.55;;;-1.50;99.90;;;;;;2602306;54;20022;31
2024/01/12 02:45:51;;;;;;;27.67;9.63;;;-1.40;99.90;;;;;;2603117;54;20871;31
2024/01/12 02:48:35;;;;;;;20.55;10.00;;;-1.40;99.90;;;;;;2621495;46;20033;31
2024/01/12 02:51:13;;;;;;;25.25;9.70;;;-1.40;99.90;;;;;;2603351;54;20026;31
2024/01/12 02:53:52;;;;;;;22.65;10.40;;;-1.40;99.90;;;;;;2603089;54;20878;31
2024/01/12 02:56:31;;;;;;;27.67;11.45;;;-1.40;99.90;;;;;;2603029;54;20105;31
2024/01/12 02:59:10;;;;;;;25.95;11.05;;;-1.50;99.90;;;;;;2603226;54;20053;31
2024/01/12 03:01:46;;;;;;;24.88;10.80;;;-1.40;99.90;;;;;;2602786;54;21013;31
2024/01/12 03:04:29;;;;;;;27.73;10.02;;;-1.40;99.90;;;;;;2602338;54;20837;31
2024/01/12 03:07:05;;;;;;;28.00;10.45;;;-1.40;99.90;;;;;;2602301;54;20031;31
2024/01/12 03:09:47;;;;;;;26.90;10.40;;;-1.30;99.90;;;;;;2603069;54;20881;31
2024/01/12 03:12:23;;;;;;;24.08;10.38;;;-1.40;99.90;;;;;;2602966;54;20027;31
2024/01/12 03:15:04;;;;;;;24.75;10.38;;;-1.30;99.90;;;;;;2603022;54;20037;31
2024/01/12 03:17:42;;;;;;;27.25;10.88;;;-1.30;99.90;;;;;;2602411;54;20813;31
2024/01/12 03:20:23;;;;;;;25.20;10.50;;;-1.30;99.90;;;;;;2603064;54;20026;31
2024/01/12 03:23:06;;;;;;;23.02;10.35;;;-1.30;99.90;;;;;;2621313;46;20081;31
2024/01/12 03:25:48;;;;;;;26.58;10.98;;;-1.30;99.90;;;;;;2602843;54;20049;31
2024/01/12 03:28:24;;;;;;;22.50;10.43;;;-1.30;99.90;;;;;;2603015;54;20874;31
2024/01/12 03:31:01;;;;;;;22.90;10.30;;;-1.30;99.90;;;;;;2602907;54;20365;31
2024/01/12 03:33:38;;;;;;;23.88;10.23;;;-1.30;99.90;;;;;;2602790;54;20038;31
2024/01/12 03:36:19;;;;;;;27.45;10.35;;;-1.20;99.90;;;;;;2602888;54;20089;31
2024/01/12 03:39:04;;;;;;;29.65;10.88;;;-1.20;99.90;;;;;;2602818;54;20926;31
2024/01/12 03:41:43;;;;;;;35.63;12.10;;;-1.20;99.90;;;;;;2602747;54;20874;31
2024/01/12 03:44:24;;;;;;;23.40;10.05;;;-1.20;99.90;;;;;;2602938;54;20060;31
2024/01/12 03:46:59;;;;;;;;;;;-1.20;99.90;;;;;;2603096;54;20807;31
2024/01/12 03:49:38;;;;;;;29.65;10.70;;;-1.20;99.90;;;;;;2603008;54;19990;31
2024/01/12 03:52:14;;;;;;;31.20;12.20;;;-1.20;99.90;;;;;;2602937;54;20785;31
2024/01/12 03:54:52;;;;;;;26.73;11.07;;;-1.20;99.90;;;;;;2621592;46;20030;31
2024/01/12 03:57:30;;;;;;;28.83;11.40;;;-1.20;99.90;;;;;;2621286;46;20942;31
2024/01/12 04:00:10;;;;;;;28.73;11.60;;;-1.20;99.90;;;;;;2603006;54;20253;31
2024/01/12 04:02:49;;;;;;;28.55;13.00;;;-1.20;99.90;;;;;;2602621;54;20096;31
2024/01/12 04:08:02;;;;;;;27.60;10.73;;;-1.20;99.90;;;;;;2602784;54;20828;31
2024/01/12 04:10:39;;;;;;;32.38;11.20;;;-1.10;99.90;;;;;;2603005;54;20033;31
2024/01/12 04:13:23;;;;;;;27.27;11.07;;;-1.10;99.90;;;;;;2602867;54;20045;31
2024/01/12 04:16:00;;;;;;;37.80;12.38;;;-1.10;99.90;;;;;;2621545;46;20890;31
2024/01/12 04:18:41;;;;;;;37.28;12.63;;;-1.10;99.90;;;;;;2621430;46;20030;31
2024/01/12 04:21:20;;;;;;;33.53;12.18;;;-1.10;99.90;;;;;;2602679;54;20875;31
2024/01/12 04:23:55;;;;;;;33.80;11.45;;;-1.20;99.90;;;;;;2621075;46;20035;31
2024/01/12 04:26:32;;;;;;;28.95;11.82;;;-1.10;99.90;;;;;;2602226;54;20978;31
2024/01/12 04:29:12;;;;;;;32.63;11.07;;;-1.10;99.90;;;;;;2602735;54;20906;31
2024/01/12 04:31:51;;;;;;;32.47;11.55;;;-1.10;99.90;;;;;;2602679;54;20951;31
2024/01/12 04:34:31;;;;;;;30.83;11.87;;;-1.10;99.90;;;;;;2602651;54;20888;31
2024/01/12 04:37:06;;;;;;;29.25;11.90;;;-1.10;99.90;;;;;;2621313;46;20273;31
2024/01/12 04:39:47;;;;;;;33.92;12.75;;;-1.10;99.90;;;;;;2602658;54;20054;31
2024/01/12 04:42:40;;;;;;;31.83;13.57;;;-1.10;99.90;;;;;;2602718;54;20904;31
2024/01/12 04:45:22;;;;;;;32.67;11.70;;;-1.00;99.90;;;;;;2620836;46;20030;31
2024/01/12 04:47:57;;;;;;;36.03;10.83;;;-1.00;99.90;;;;;;2621250;46;20915;31
2024/01/12 04:50:36;;;;;;;31.30;12.05;;;-1.00;99.90;;;;;;2602597;54;20257;31
2024/01/12 04:53:18;;;;;;;29.80;10.70;;;-1.00;99.90;;;;;;2602576;54;20037;31
2024/01/12 04:55:59;;;;;;;28.05;11.40;;;-1.00;99.90;;;;;;2602825;54;20757;31
2024/01/12 04:58:36;;;;;;;37.35;12.35;;;-0.90;99.90;;;;;;2602594;54;20085;31
2024/01/12 05:01:18;;;;;;;32.10;11.35;;;-1.00;99.90;;;;;;2601853;54;20061;31
2024/01/12 05:03:54;;;;;;;30.47;11.13;;;-1.00;99.90;;;;;;2601913;54;20867;31
2024/01/12 05:06:34;;;;;;;31.08;10.23;;;-1.00;99.90;;;;;;2602971;54;20356;31
2024/01/12 05:09:08;;;;;;;25.77;10.02;;;;;;;;;;2602594;54;20866;31
2024/01/12 05:11:45;;;;;;;31.05;11.02;;;-0.90;99.90;;;;;;2602486;54;20951;31
2024/01/12 05:14:22;;;;;;;27.83;11.27;;;-0.90;99.90;;;;;;2602491;54;20918;31
2024/01/12 05:17:03;;;;;;;30.67;12.10;;;-1.00;99.90;;;;;;2621320;47;20026;31
2024/01/12 05:19:38;;;;;;;33.55;11.88;;;-0.90;99.90;;;;;;2602615;54;20053;31
2024/01/12 05:22:25;;;;;;;37.83;11.82;;;-1.00;99.90;;;;;;2602451;54;20960;31
2024/01/12 05:25:03;;;;;;;35.85;12.30;;;-1.00;99.90;;;;;;2602493;54;20092;31
2024/01/12 05:27:40;;;;;;;27.58;11.48;;;-0.90;99.90;;;;;;2602340;54;20876;31
2024/01/12 05:30:18;;;;;;;39.65;11.50;;;-0.90;99.90;;;;;;2620850;47;22357;31
2024/01/12 05:32:57;;;;;;;35.47;12.77;;;-0.90;99.90;;;;;;2602415;54;20057;31
2024/01/12 05:35:35;;;;;;;31.05;11.18;;;-0.90;99.90;;;;;;2621157;47;20844;31
2024/01/12 05:38:14;;;;;;;31.60;10.90;;;-0.90;99.90;;;;;;2602767;54;20026;31
2024/01/12 05:40:53;;;;;;;34.00;11.15;;;-0.90;99.90;;;;;;2602433;54;20030;31
2024/01/12 05:46:05;;;;;;;31.75;11.88;;;-1.00;99.90;;;;;;2602494;54;20037;31
2024/01/12 05:48:45;;;;;;;35.07;11.37;;;-0.90;99.90;;;;;;2602344;54;20034;31
2024/01/12 05:51:23;;;;;;;36.40;13.38;;;-0.80;99.90;;;;;;2620528;47;20115;31
2024/01/12 05:54:00;;;;;;;27.80;10.40;;;-0.80;99.90;;;;;;2602288;54;20030;31
2024/01/12 05:56:34;;;;;;;31.42;12.48;;;-0.90;99.90;;;;;;2602983;54;22401;31
2024/01/12 05:59:11;;;;;;;36.35;12.68;;;-0.90;99.90;;;;;;2621389;46;20838;31
2024/01/12 06:01:45;;;;;;;28.98;11.93;;;-0.90;99.90;;;;;;2603346;54;20213;31
2024/01/12 06:04:24;;;;;;;30.05;11.02;;;-0.90;99.90;;;;;;2603104;54;20820;31
2024/01/12 06:06:58;;;;;;;30.47;11.07;;;-0.90;99.90;;;;;;2603097;54;20931;31
2024/01/12 06:09:34;;;;;;;25.38;9.38;;;-0.90;99.90;;;;;;2603233;54;20259;31
2024/01/12 06:12:11;;;;;;;20.80;8.60;;;-0.90;99.90;;;;;;2603106;54;20054;31
2024/01/12 06:14:46;;;;;;;19.95;8.63;;;-1.00;99.90;;;;;;2603137;54;20031;31
2024/01/12 06:17:22;;;;;;;23.30;8.77;;;-0.90;99.90;;;;;;2603187;54;20888;31
2024/01/12 06:19:59;;;;;;;25.02;9.15;;;-1.00;99.90;;;;;;2602957;54;20835;31
2024/01/12 06:22:34;;;;;;;19.70;7.53;;;-1.00;99.90;;;;;;2603172;54;20050;31
2024/01/12 06:25:10;;;;;;;17.77;7.43;;;-1.00;99.90;;;;;;2621291;46;20038;31
2024/01/12 06:27:46;;;;;;;20.42;8.52;;;-1.00;99.90;;;;;;2602799;54;20077;31
2024/01/12 06:30:21;;;;;;;22.45;7.75;;;-1.00;99.90;;;;;;2603225;54;20022;31
2024/01/12 06:32:55;;;;;;;19.20;8.00;;;-1.00;99.90;;;;;;2603152;54;20035;31
2024/01/12 06:35:33;;;;;;;21.42;8.13;;;-1.00;99.90;;;;;;2603007;54;20050;31
2024/01/12 06:38:11;;;;;;;27.17;9.77;;;-1.00;99.90;;;;;;2603037;54;20090;31
2024/01/12 06:40:46;;;;;;;22.27;8.03;;;-1.10;99.90;;;;;;2603078;54;20746;31
2024/01/12 06:43:21;;;;;;;21.55;9.70;;;-1.00;99.90;;;;;;2602980;54;20838;31
2024/01/12 06:45:57;;;;;;;21.60;8.38;;;-1.00;99.90;;;;;;2603142;54;21159;31
2024/01/12 06:48:32;;;;;;;21.77;8.73;;;-1.00;99.90;;;;;;2603015;54;20041;31
2024/01/12 06:51:10;;;;;;;16.92;8.38;;;-1.10;99.90;;;;;;2602930;54;20869;31
2024/01/12 06:53:48;;;;;;;21.95;8.30;;;-1.00;99.90;;;;;;2621458;46;20102;31
2024/01/12 06:56:24;;;;;;;15.48;7.28;;;-1.00;99.90;;;;;;2603175;54;20036;31
2024/01/12 06:58:58;;;;;;;17.65;8.15;;;-1.00;99.90;;;;;;2603179;54;20034;31
2024/01/12 07:01:34;;;;;;;22.30;8.25;;;-1.10;99.90;;;;;;2603101;54;20926;31
2024/01/12 07:04:10;;;;;;;17.25;7.80;;;-1.00;99.90;;;;;;2603010;54;20149;31
2024/01/12 07:06:48;;;;;;;17.30;7.50;;;-1.10;99.90;;;;;;2602674;54;20038;31
2024/01/12 07:09:30;;;;;;;22.43;7.90;;;-1.00;99.90;;;;;;2602982;54;20101;31
2024/01/12 07:12:09;;;;;;;18.20;8.25;;;-1.00;99.90;;;;;;2602253;54;20108;31
2024/01/12 07:14:45;;;;;;;20.73;8.27;;;-1.00;99.90;;;;;;2602968;54;20792;31
2024/01/12 07:17:20;;;;;;;20.92;7.38;;;-1.00;99.90;;;;;;2602671;54;20023;31
2024/01/12 07:19:54;;;;;;;20.75;8.55;;;-1.00;99.90;;;;;;2621626;46;20042;31
2024/01/12 07:22:32;;;;;;;23.67;9.55;;;-1.00;99.90;;;;;;2602933;54;20242;31
2024/01/12 07:25:08;;;;;;;24.20;9.02;;;-1.00;99.90;;;;;;2602904;54;20910;31
2024/01/12 07:27:43;;;;;;;;;;;-0.90;99.90;;;;;;2603167;54;20030;31
2024/01/12 07:30:21;;;;;;;21.67;9.83;;;-0.90;99.90;;;;;;2603064;54;19934;31
2024/01/12 07:32:59;;;;;;;24.05;9.90;;;-0.90;99.90;;;;;;2603133;54;20026;31
2024/01/12 07:35:36;;;;;;;25.45;10.25;;;-0.90;99.90;;;;;;2603096;54;20770;31
2024/01/12 07:38:16;;;;;;;21.65;9.65;;;-0.90;99.90;;;;;;2621684;46;20908;31
2024/01/12 07:40:53;;;;;;;21.40;8.57;;;-0.90;99.90;;;;;;2602733;54;20034;31
2024/01/12 07:43:34;;;;;;;20.25;8.57;;;-0.90;99.90;;;;;;2621350;46;20038;31
2024/01/12 07:46:20;;;;;;;18.25;8.85;;;-0.90;99.90;;;;;;2602654;54;20919;31
2024/01/12 07:48:57;;;;;;;15.00;7.45;;;-0.80;99.90;;;;;;2602787;54;20027;31
2024/01/12 07:51:34;;;;;;;20.23;8.37;;;-0.90;99.90;;;;;;2602931;54;20890;31
2024/01/12 07:54:15;;;;;;;23.80;9.00;;;-0.80;99.90;;;;;;2602871;54;20246;31
2024/01/12 07:56:56;;;;;;;22.10;10.33;;;-0.80;99.90;;;;;;2603079;54;20862;31
2024/01/12 07:59:34;;;;;;;25.45;10.68;;;-0.80;99.90;;;;;;2602874;54;20239;31
2024/01/12 08:02:16;;;;;;;22.20;10.25;;;-0.80;99.90;;;;;;2602785;54;20026;31
2024/01/12 08:07:27;;;;;;;25.05;9.82;;;-0.70;99.90;;;;;;2602910;54;20022;31
2024/01/12 08:10:08;;;;;;;26.93;10.03;;;-0.60;99.90;;;;;;2602637;54;20036;31
2024/01/12 08:13:03;;;;;;;24.95;11.05;;;-0.60;99.90;;;;;;2602879;54;20770;31
2024/01/12 08:15:40;;;;;;;27.83;10.47;;;-0.50;99.90;;;;;;2602737;54;20767;31
2024/01/12 08:18:18;;;;;;;23.20;10.70;;;-0.50;99.90;;;;;;2602332;54;20026;31
2024/01/12 08:20:59;;;;;;;23.23;10.13;;;-0.50;99.90;;;;;;2602729;54;20031;31
2024/01/12 08:23:35;;;;;;;23.65;9.90;;;-0.40;99.90;;;;;;2602731;54;20033;31
2024/01/12 08:26:21;;;;;;;28.27;10.15;;;-0.40;99.90;;;;;;2602661;54;20034;31
2024/01/12 08:29:01;;;;;;;25.90;10.20;;;-0.40;99.90;;;;;;2602720;54;20027;31
2024/01/12 08:31:36;;;;;;;26.90;11.02;;;-0.30;99.90;;;;;;2602652;54;20042;31
2024/01/12 08:34:14;;;;;;;21.77;11.20;;;-0.30;99.90;;;;;;2620991;46;21230;31
2024/01/12 08:37:06;;;;;;;;;;;;;;;;;;;;;
2024/01/12 08:39:53;;;;;;;23.20;9.70;;;-0.30;99.90;;;;;;2602838;54;20052;31
2024/01/12 08:42:42;;;;;;;26.48;10.63;;;-0.20;99.90;;;;;;2602842;54;20031;31
2024/01/12 08:45:27;;;;;;;27.85;10.05;;;-0.30;99.90;;;;;;2602613;54;20827;31
2024/01/12 08:48:11;;;;;;;33.58;12.80;;;-0.30;99.90;;;;;;2601726;54;20093;31
2024/01/12 08:50:51;;;;;;;35.15;11.95;;;-0.20;99.90;;;;;;2620887;46;20026;31
2024/01/12 08:56:01;;;;;;;39.65;11.40;;;-0.30;99.90;;;;;;2602582;54;20109;31
2024/01/12 08:58:44;;;;;;;36.73;12.60;;;-0.30;99.90;;;;;;2602677;54;20075;31
2024/01/12 09:01:20;;;;;;;30.75;11.30;;;-0.30;99.90;;;;;;2620861;47;20057;31
2024/01/12 09:04:07;;;;;;;36.97;12.60;;;-0.30;99.90;;;;;;2602555;54;20965;31
2024/01/12 09:06:43;;;;;;;31.80;11.65;;;-0.30;99.90;;;;;;2621142;47;21030;31
2024/01/12 09:09:21;;;;;;;27.27;10.70;;;-0.40;99.90;;;;;;2602559;54;20121;31
2024/01/12 09:11:57;;;;;;;36.35;11.98;;;-0.50;99.90;;;;;;2602639;54;20053;31
2024/01/12 09:14:38;;;;;;;35.20;12.20;;;-0.40;99.90;;;;;;2602751;54;20911;31
2024/01/12 09:17:17;;;;;;;34.15;11.10;;;-0.50;99.90;;;;;;2602569;54;20077;31
2024/01/12 09:19:53;;;;;;;30.13;11.32;;;-0.50;99.90;;;;;;2602653;54;20050;31
2024/01/12 09:22:31;;;;;;;32.55;10.93;;;-0.50;99.90;;;;;;2621126;47;20947;31
2024/01/12 09:25:10;;;;;;;24.43;9.50;;;-0.50;99.90;;;;;;2602200;54;20111;31
2024/01/12 09:27:50;;;;;;;30.98;10.82;;;-0.50;99.90;;;;;;2602416;54;20034;31
2024/01/12 09:30:30;;;;;;;23.30;9.57;;;-0.50;99.90;;;;;;2602850;54;20064;31
2024/01/12 09:33:09;;;;;;;31.20;10.27;;;-0.50;99.90;;;;;;2603079;54;20262;31
2024/01/12 09:35:45;;;;;;;26.42;9.82;;;-0.50;99.90;;;;;;2621781;46;20112;31
2024/01/12 09:38:54;;;;;;;27.13;9.80;;;-0.40;99.90;;;;;;2622084;46;20861;31
2024/01/12 09:41:36;;;;;;;28.75;10.23;;;-0.40;99.90;;;;;;2621918;46;20872;31
2024/01/12 09:44:12;;;;;;;27.53;10.30;;;-0.40;99.90;;;;;;2603504;54;20034;31
2024/01/12 09:46:55;;;;;;;35.17;11.18;;;-0.40;99.90;;;;;;2621827;46;21077;31
2024/01/12 09:49:31;;;;;;;31.52;9.68;;;-0.30;99.90;;;;;;2621719;46;20031;31
2024/01/12 09:52:13;;;;;;;32.40;10.93;;;-0.40;99.90;;;;;;2621815;46;20782;31
2024/01/12 09:54:50;;;;;;;21.38;9.02;;;-0.40;99.90;;;;;;2621890;46;20023;31
2024/01/12 09:57:27;;;;;;;23.77;9.17;;;-0.40;99.90;;;;;;2602423;54;20806;31
2024/01/12 10:00:03;;;;;;;22.55;8.60;;;-0.30;99.90;;;;;;2621397;46;20084;31
2024/01/12 10:02:47;;;;;;;23.67;9.45;;;-0.30;99.90;;;;;;2603006;54;20034;31
2024/01/12 10:05:23;;;;;;;20.83;8.88;;;-0.20;99.90;;;;;;2603446;54;20030;31
2024/01/12 10:08:03;;;;;;;24.88;9.57;;;-0.20;99.90;;;;;;2621277;46;20861;31
2024/01/12 10:10:41;;;;;;;26.17;10.52;;;-0.20;99.90;;;;;;2602670;54;20080;31
2024/01/12 10:13:16;;;;;;;17.48;8.02;;;-0.20;99.90;;;;;;2601513;54;20950;31
2024/01/12 10:15:52;;;;;;;;;;;-0.20;99.90;;;;;;2601592;54;20085;31
2024/01/12 10:18:32;;;;;;;19.15;8.30;;;-0.20;99.90;;;;;;2602762;54;20009;31
2024/01/12 10:21:10;;;;;;;18.77;6.78;;;-0.20;99.90;;;;;;2603222;54;20801;31
2024/01/12 10:23:48;;;;;;;21.58;8.20;;;-0.20;99.90;;;;;;2603017;54;20133;31
2024/01/12 10:26:25;;;;;;;17.70;8.20;;;-0.20;99.90;;;;;;2603198;54;20765;31
2024/01/12 10:29:05;;;;;;;20.70;8.73;;;-0.20;99.90;;;;;;2621623;46;20149;31
2024/01/12 10:31:45;;;;;;;19.63;8.20;;;-0.10;99.90;;;;;;2608824;46;20030;31
2024/01/12 10:34:27;;;;;;;20.27;7.70;;;-0.10;99.90;;;;;;2621868;46;20959;31
2024/01/12 10:37:06;;;;;;;21.65;7.05;;;-0.10;99.90;;;;;;2602411;54;20027;31
2024/01/12 10:39:43;;;;;;;18.08;6.70;;;-0.10;99.90;;;;;;2602508;54;20799;31
2024/01/12 10:42:20;;;;;;;18.02;7.13;;;-0.10;99.90;;;;;;2603122;54;20029;31
2024/01/12 10:44:56;;;;;;;17.65;6.85;;;0.00;99.90;;;;;;2603134;54;20106;31
2024/01/12 10:47:34;;;;;;;14.25;5.90;;;0.00;99.90;;;;;;2603102;54;20052;31
2024/01/12 10:50:17;;;;;;;14.10;4.97;;;0.00;99.90;;;;;;2603102;54;20772;31
2024/01/12 10:53:00;;;;;;;15.43;6.00;;;0.00;99.90;;;;;;2603144;54;20914;31
2024/01/12 10:55:37;;;;;;;13.68;6.35;;;0.00;99.90;;;;;;2602838;54;20905;31
2024/01/12 10:58:14;;;;;;;17.80;6.60;;;0.00;99.90;;;;;;2603098;54;20921;31
2024/01/12 11:00:51;;;;;;;13.70;6.63;;;0.00;99.90;;;;;;2621746;46;21220;31
2024/01/12 11:03:30;;;;;;;10.25;5.85;;;0.00;99.90;;;;;;2603074;54;20840;31
2024/01/12 11:06:11;;;;;;;12.05;5.45;;;0.00;99.90;;;;;;2621540;46;20092;31
2024/01/12 11:08:50;;;;;;;10.77;5.35;;;0.00;99.90;;;;;;2621246;46;20038;31
2024/01/12 11:11:28;;;;;;;16.70;6.50;;;0.00;99.90;;;;;;2603114;54;20038;31
2024/01/12 11:14:04;;;;;;;17.60;6.95;;;0.00;99.90;;;;;;2602205;54;20053;31
2024/01/12 11:16:41;;;;;;;16.65;6.65;;;0.00;99.90;;;;;;2619266;46;20097;31
2024/01/12 11:19:16;;;;;;;14.35;6.18;;;0.00;99.90;;;;;;2602992;54;20026;31
2024/01/12 11:22:05;;;;;;;13.52;6.80;;;0.00;99.90;;;;;;2602858;54;20774;31
2024/01/12 11:24:44;;;;;;;14.75;6.65;;;0.00;99.90;;;;;;2602863;54;20026;31
2024/01/12 11:27:20;;;;;;;15.25;5.90;;;0.00;99.90;;;;;;2603038;54;20057;31
2024/01/12 11:30:00;;;;;;;14.50;6.00;;;0.00;99.90;;;;;;2621299;46;20027;31
2024/01/12 11:32:37;;;;;;;11.38;5.53;;;0.00;99.90;;;;;;2621301;46;20906;31
2024/01/12 11:35:19;;;;;;;14.90;5.55;;;0.00;99.90;;;;;;2602829;54;20034;31
2024/01/12 11:38:05;;;;;;;17.02;6.70;;;0.00;99.90;;;;;;2602844;54;20038;31
2024/01/12 11:40:46;;;;;;;11.63;4.93;;;0.00;99.90;;;;;;2602913;54;20819;31
2024/01/12 11:43:23;;;;;;;13.10;5.80;;;0.00;99.90;;;;;;2602205;54;20029;31
2024/01/12 11:45:59;;;;;;;11.30;5.32;;;0.00;99.90;;;;;;2621219;46;20161;31
2024/01/12 11:48:39;;;;;;;14.17;5.70;;;0.00;99.90;;;;;;2603090;54;20034;31
2024/01/12 11:51:27;;;;;;;13.88;5.88;;;0.10;99.90;;;;;;2602939;54;20029;31
2024/01/12 11:54:06;;;;;;;11.15;5.35;;;0.00;99.90;;;;;;2602679;54;20022;31
2024/01/12 11:56:43;;;;;;;12.40;5.55;;;0.00;99.90;;;;;;2602755;54;20026;31
2024/01/12 11:59:18;;;;;;;12.70;5.55;;;0.00;99.90;;;;;;2621119;46;20030;31
2024/01/12 12:01:55;;;;;;;12.97;4.93;;;0.00;99.90;;;;;;2601652;54;20034;31
2024/01/12 12:04:33;;;;;;;9.43;4.50;;;0.00;99.90;;;;;;2621048;46;22606;31
2024/01/12 12:07:11;;;;;;;13.85;4.75;;;0.00;99.90;;;;;;2602719;54;20030;31
2024/01/12 12:09:49;;;;;;;13.13;5.32;;;-0.10;99.90;;;;;;2621163;46;20031;31
2024/01/12 12:12:29;;;;;;;13.55;5.15;;;-0.10;99.90;;;;;;2602809;54;20034;31
2024/01/12 12:15:07;;;;;;;13.90;5.90;;;0.00;99.90;;;;;;2621511;46;20785;31
2024/01/12 12:17:48;;;;;;;16.13;5.38;;;0.00;99.90;;;;;;2602962;54;20050;31
2024/01/12 12:20:26;;;;;;;11.13;4.82;;;0.00;99.90;;;;;;2602737;54;20918;31
2024/01/12 12:23:00;;;;;;;13.83;6.13;;;0.10;99.90;;;;;;2602681;54;20855;31
2024/01/12 12:25:38;;;;;;;12.05;4.70;;;0.10;99.90;;;;;;2602567;54;20272;31
2024/01/12 12:28:19;;;;;;;10.10;4.45;;;0.00;99.90;;;;;;2602471;54;20077;31
2024/01/12 12:30:57;;;;;;;12.30;5.20;;;0.00;99.90;;;;;;2602810;54;20905;31
2024/01/12 12:33:32;;;;;;;8.77;4.38;;;0.00;99.90;;;;;;2602531;54;20262;31
2024/01/12 12:36:13;;;;;;;10.50;4.40;;;0.00;99.90;;;;;;2602549;54;20881;31
2024/01/12 12:38:50;;;;;;;12.15;5.78;;;-0.10;99.90;;;;;;2621331;46;20057;31
2024/01/12 12:41:30;;;;;;;14.30;5.35;;;0.00;99.90;;;;;;2602429;54;20085;31
2024/01/12 12:44:09;;;;;;;11.55;4.90;;;0.10;99.90;;;;;;2620889;46;20037;31
2024/01/12 12:46:45;;;;;;;11.95;5.35;;;-0.10;99.90;;;;;;2602455;54;20064;31
2024/01/12 12:49:23;;;;;;;15.63;5.25;;;-0.10;99.90;;;;;;2602403;54;20087;31
2024/01/12 12:52:00;;;;;;;14.32;5.65;;;-0.10;99.90;;;;;;2601961;54;20923;31
2024/01/12 12:54:37;;;;;;;16.65;6.00;;;-0.20;99.90;;;;;;2620919;46;22198;31
2024/01/12 12:57:15;;;;;;;13.07;5.22;;;-0.10;99.90;;;;;;2620894;46;20041;31
2024/01/12 12:59:50;;;;;;;13.20;4.85;;;-0.20;99.90;;;;;;2602398;54;20022;31
2024/01/12 13:02:30;;;;;;;15.13;5.73;;;0.20;99.90;;;;;;2602472;54;20782;31
2024/01/12 13:05:13;;;;;;;11.65;5.00;;;0.20;99.90;;;;;;2601954;54;20046;31
2024/01/12 13:07:50;;;;;;;9.63;4.67;;;0.20;99.90;;;;;;2603414;54;20762;31
2024/01/12 13:10:26;;;;;;;12.75;5.57;;;0.20;99.90;;;;;;2603340;54;20050;31
2024/01/12 13:13:02;;;;;;;;;;;0.10;99.90;;;;;;2603384;54;20058;31
2024/01/12 13:15:38;;;;;;;13.70;4.57;;;0.00;99.90;;;;;;2621692;46;20752;31
2024/01/12 13:18:19;;;;;;;14.50;5.10;;;0.00;99.90;;;;;;2602906;54;20045;31
2024/01/12 13:20:57;;;;;;;13.30;5.47;;;0.00;99.90;;;;;;2602928;54;20030;31
2024/01/12 13:23:35;;;;;;;14.48;6.35;;;-0.10;99.90;;;;;;2603187;54;20054;31
2024/01/12 13:26:13;;;;;;;12.55;6.00;;;-0.10;99.90;;;;;;2621654;46;20068;31
2024/01/12 13:28:55;;;;;;;14.07;6.17;;;-0.10;99.90;;;;;;2603349;54;20914;31
2024/01/12 13:31:36;;;;;;;18.63;7.87;;;-0.20;99.90;;;;;;2621854;46;20328;31
2024/01/12 13:34:18;;;;;;;16.35;6.47;;;-0.20;99.90;;;;;;2602363;54;20030;31
2024/01/12 13:37:00;;;;;;;14.45;6.20;;;-0.20;99.90;;;;;;2603305;54;20046;31
2024/01/12 13:39:36;;;;;;;15.40;5.70;;;-0.30;99.90;;;;;;2602366;54;20027;31
2024/01/12 13:42:12;;;;;;;11.48;5.75;;;0.00;99.90;;;;;;2603126;54;20026;31
2024/01/12 13:44:49;;;;;;;11.75;6.35;;;-0.20;99.90;;;;;;2603223;54;20064;31
2024/01/12 13:47:24;;;;;;;;;;;-0.30;99.90;;;;;;2621702;46;20039;31
2024/01/12 13:50:03;;;;;;;12.25;5.35;;;-0.30;99.90;;;;;;2621833;46;19958;31
2024/01/12 13:52:39;;;;;;;10.57;5.53;;;-0.30;99.90;;;;;;2603252;54;20030;31
2024/01/12 13:55:17;;;;;;;16.67;6.00;;;-0.30;99.90;;;;;;2603246;54;20141;31
2024/01/12 13:57:57;;;;;;;10.13;5.15;;;-0.30;99.90;;;;;;2603184;54;20909;31
2024/01/12 14:00:32;;;;;;;13.55;5.65;;;-0.30;99.90;;;;;;2603364;54;20835;31
2024/01/12 14:03:12;;;;;;;16.33;7.20;;;-0.40;99.90;;;;;;2603144;54;20995;31
2024/01/12 14:05:51;;;;;;;13.20;6.00;;;-0.40;99.90;;;;;;2603049;54;20761;31
2024/01/12 14:08:28;;;;;;;11.25;6.03;;;-0.40;99.90;;;;;;2603202;54;20043;31
2024/01/12 14:11:07;;;;;;;17.80;7.50;;;-0.40;99.90;;;;;;2621956;46;20022;31
2024/01/12 14:13:47;;;;;;;15.53;6.73;;;-0.40;99.90;;;;;;2621760;46;20801;31